createdAt,value
2018-03-23T00:01:49.982Z,82.50
2018-03-23T00:05:13.258Z,81.80
2018-03-23T00:08:36.631Z,81.90
2018-03-23T00:11:59.917Z,81.50
2018-03-23T00:15:23.182Z,82.30
2018-03-23T00:18:46.520Z,82.20
2018-03-23T00:22:09.835Z,82.00
2018-03-23T00:25:33.123Z,81.90
2018-03-23T00:28:56.396Z,81.90
2018-03-23T00:32:19.664Z,81.50
2018-03-23T00:35:43.694Z,81.90
2018-03-23T00:39:06.974Z,81.70
2018-03-23T00:42:30.260Z,81.60
2018-03-23T00:45:53.539Z,81.30
2018-03-23T00:49:16.850Z,80.60
2018-03-23T00:52:40.129Z,82.10
2018-03-23T00:56:03.398Z,81.60
2018-03-23T00:59:26.689Z,81.30
2018-03-23T01:02:49.970Z,81.60
2018-03-23T01:06:13.243Z,81.00
2018-03-23T01:09:36.530Z,82.60
2018-03-23T01:12:59.834Z,81.70
2018-03-23T01:16:23.137Z,81.80
2018-03-23T01:19:46.470Z,81.60
2018-03-23T01:23:09.744Z,81.30
2018-03-23T01:26:33.016Z,81.60
2018-03-23T01:29:57.118Z,81.90
2018-03-23T01:33:21.208Z,80.90
2018-03-23T01:36:44.474Z,81.60
2018-03-23T01:40:07.774Z,81.10
2018-03-23T01:43:31.067Z,81.00
2018-03-23T01:46:54.386Z,81.60
2018-03-23T01:50:18.431Z,81.30
2018-03-23T01:53:45.596Z,81.20
2018-03-23T01:57:08.919Z,80.20
2018-03-23T02:00:32.199Z,80.20
2018-03-23T02:03:55.530Z,80.20
2018-03-23T02:07:18.853Z,80.40
2018-03-23T02:10:42.193Z,80.60
2018-03-23T02:14:06.289Z,80.20
2018-03-23T02:17:29.562Z,80.10
2018-03-23T02:20:52.854Z,79.30
2018-03-23T02:24:16.125Z,79.60
2018-03-23T02:27:39.398Z,79.90
2018-03-23T02:31:03.505Z,80.10
2018-03-23T02:34:26.789Z,80.00
2018-03-23T02:37:50.087Z,80.20
2018-03-23T02:41:13.351Z,79.20
2018-03-23T02:44:36.646Z,79.10
2018-03-23T02:47:59.931Z,79.80
2018-03-23T02:51:23.213Z,79.30
2018-03-23T02:54:46.511Z,78.30
2018-03-23T02:58:09.768Z,78.70
2018-03-23T03:01:33.958Z,79.20
2018-03-23T03:04:57.298Z,79.20
2018-03-23T03:08:20.575Z,78.00
2018-03-23T03:11:43.864Z,78.50
2018-03-23T03:15:07.145Z,79.30
2018-03-23T03:18:30.430Z,79.20
2018-03-23T03:21:53.722Z,79.00
2018-03-23T03:25:17.026Z,79.10
2018-03-23T03:28:40.348Z,79.80
2018-03-23T03:32:03.703Z,79.20
2018-03-23T03:35:27.003Z,80.10
2018-03-23T03:38:50.286Z,80.10
2018-03-23T03:42:13.568Z,79.20
2018-03-23T03:45:36.834Z,79.20
2018-03-23T03:49:00.141Z,79.20
2018-03-23T03:52:23.420Z,79.70
2018-03-23T03:55:46.689Z,79.10
2018-03-23T03:59:10.001Z,79.70
2018-03-23T04:02:33.258Z,80.30
2018-03-23T04:05:56.561Z,79.30
2018-03-23T04:09:19.843Z,79.10
2018-03-23T04:12:43.129Z,78.90
2018-03-23T04:16:06.416Z,79.20
2018-03-23T04:19:29.719Z,77.70
2018-03-23T04:22:52.986Z,78.90
2018-03-23T04:26:16.252Z,79.30
2018-03-23T04:29:39.540Z,78.10
2018-03-23T04:33:02.829Z,78.70
2018-03-23T04:36:26.109Z,79.10
2018-03-23T04:39:49.412Z,79.30
2018-03-23T04:43:12.674Z,79.20
2018-03-23T04:46:35.953Z,78.90
2018-03-23T04:50:00.045Z,78.20
2018-03-23T04:53:23.326Z,78.10
2018-03-23T04:56:46.616Z,79.30
2018-03-23T05:00:09.900Z,78.90
2018-03-23T05:03:33.181Z,79.80
2018-03-23T05:06:56.477Z,79.70
2018-03-23T05:10:19.751Z,80.70
2018-03-23T05:13:43.027Z,79.50
2018-03-23T05:17:07.332Z,79.40
2018-03-23T05:20:30.651Z,78.50
2018-03-23T05:23:53.983Z,80.10
2018-03-23T05:27:18.138Z,78.30
2018-03-23T05:30:42.224Z,79.30
2018-03-23T05:34:05.496Z,79.30
2018-03-23T05:37:28.797Z,79.80
2018-03-23T05:40:52.882Z,79.80
2018-03-23T05:44:16.176Z,79.80
2018-03-23T05:47:39.554Z,78.50
2018-03-23T05:51:03.604Z,78.40
2018-03-23T05:54:26.900Z,78.30
2018-03-23T05:57:50.538Z,78.20
2018-03-23T06:01:13.840Z,79.20
2018-03-23T06:04:37.192Z,80.00
2018-03-23T06:08:00.496Z,78.80
2018-03-23T06:11:23.843Z,78.40
2018-03-23T06:14:47.186Z,78.60
2018-03-23T06:18:10.460Z,78.30
2018-03-23T06:21:33.744Z,79.60
2018-03-23T06:24:57.032Z,79.50
2018-03-23T06:28:20.304Z,80.30
2018-03-23T06:31:43.793Z,80.80
2018-03-23T06:35:07.922Z,81.40
2018-03-23T06:38:31.272Z,81.30
2018-03-23T06:41:54.543Z,81.70
2018-03-23T06:45:17.828Z,81.00
2018-03-23T06:48:41.095Z,82.00
2018-03-23T06:52:04.385Z,81.00
2018-03-23T06:55:27.694Z,81.40
2018-03-23T06:58:50.962Z,81.90
2018-03-23T07:02:14.243Z,81.10
2018-03-23T07:05:37.504Z,80.60
2018-03-23T07:09:01.528Z,77.40
2018-03-23T07:12:24.830Z,77.30
2018-03-23T07:15:48.105Z,76.90
2018-03-23T07:19:11.382Z,76.40
2018-03-23T07:22:34.691Z,76.50
2018-03-23T07:25:57.974Z,76.80
2018-03-23T07:29:21.234Z,76.80
2018-03-23T07:32:44.500Z,76.00
2018-03-23T07:36:08.560Z,77.00
2018-03-23T07:39:31.856Z,76.90
2018-03-23T07:42:55.137Z,77.80
2018-03-23T07:46:18.439Z,76.60
2018-03-23T07:49:42.499Z,77.10
2018-03-23T07:53:05.770Z,76.90
2018-03-23T07:56:29.044Z,76.70
2018-03-23T07:59:52.311Z,76.60
2018-03-23T08:03:16.333Z,74.70
2018-03-23T08:06:39.654Z,74.60
2018-03-23T08:10:02.923Z,73.80
2018-03-23T08:13:26.339Z,74.80
2018-03-23T08:16:49.632Z,74.10
2018-03-23T08:20:12.892Z,71.70
2018-03-23T08:23:36.915Z,71.60
2018-03-23T08:27:00.183Z,71.60
2018-03-23T08:30:24.203Z,71.30
2018-03-23T08:33:47.489Z,71.20
2018-03-23T08:37:10.770Z,70.50
2018-03-23T08:40:34.905Z,69.60
2018-03-23T08:43:58.920Z,71.40
2018-03-23T08:47:22.971Z,71.00
2018-03-23T08:50:46.330Z,71.00
2018-03-23T08:54:09.612Z,70.40
2018-03-23T08:57:32.880Z,69.90
2018-03-23T09:00:56.154Z,69.60
2018-03-23T09:04:19.426Z,70.50
2018-03-23T09:07:43.474Z,69.90
2018-03-23T09:11:06.738Z,69.90
2018-03-23T09:14:30.741Z,69.90
2018-03-23T09:17:54.862Z,70.10
2018-03-23T09:21:18.246Z,70.10
2018-03-23T09:24:41.603Z,69.70
2018-03-23T09:28:05.024Z,68.60
2018-03-23T09:31:28.396Z,68.60
2018-03-23T09:34:52.445Z,68.30
2018-03-23T09:38:15.723Z,68.20
2018-03-23T09:41:38.997Z,68.90
2018-03-23T09:45:02.273Z,69.40
2018-03-23T09:48:25.553Z,69.90
2018-03-23T09:51:49.819Z,69.70
2018-03-23T09:55:13.116Z,69.70
2018-03-23T09:58:36.407Z,68.80
2018-03-23T10:02:00.439Z,68.10
2018-03-23T10:05:23.754Z,68.00
2018-03-23T10:08:47.220Z,68.70
2018-03-23T10:12:11.402Z,67.00
2018-03-23T10:15:35.377Z,67.00
2018-03-23T10:18:59.547Z,67.90
2018-03-23T10:22:25.039Z,67.80
2018-03-23T10:25:49.671Z,67.40
2018-03-23T10:29:16.061Z,67.00
2018-03-23T10:32:40.039Z,66.90
2018-03-23T10:36:04.034Z,67.60
2018-03-23T10:39:28.090Z,64.20
2018-03-23T10:42:51.372Z,64.20
2018-03-23T10:46:14.639Z,64.10
2018-03-23T10:49:37.912Z,64.10
2018-03-23T10:53:01.236Z,63.90
2018-03-23T10:56:26.118Z,63.00
2018-03-23T10:59:49.850Z,62.80
2018-03-23T11:03:13.939Z,57.10
2018-03-23T11:06:38.770Z,58.00
2018-03-23T11:10:02.422Z,57.30
2018-03-23T11:13:25.979Z,58.40
2018-03-23T11:16:50.030Z,57.10
2018-03-23T11:20:13.440Z,57.00
2018-03-23T11:23:39.816Z,56.20
2018-03-23T11:27:03.960Z,53.90
2018-03-23T11:30:27.256Z,53.90
2018-03-23T11:33:52.579Z,53.80
2018-03-23T11:37:17.595Z,54.20
2018-03-23T11:40:40.983Z,54.10
2018-03-23T11:44:04.422Z,54.40
2018-03-23T11:51:06.701Z,54.10
2018-03-23T11:54:30.065Z,52.30
2018-03-23T11:57:53.573Z,53.20
2018-03-23T12:01:16.875Z,52.90
2018-03-23T12:04:40.190Z,53.20
2018-03-23T12:08:03.524Z,52.60
2018-03-23T12:11:27.808Z,53.20
2018-03-23T12:14:51.138Z,53.20
2018-03-23T12:18:14.436Z,53.10
2018-03-23T12:21:37.747Z,53.20
2018-03-23T12:25:01.860Z,53.90
2018-03-23T12:28:25.256Z,53.20
2018-03-23T12:31:48.577Z,51.50
2018-03-23T12:35:11.873Z,52.40
2018-03-23T12:38:35.198Z,52.80
2018-03-23T12:41:59.266Z,53.50
2018-03-23T12:45:23.348Z,54.00
2018-03-23T12:48:46.763Z,53.90
2018-03-23T12:52:10.101Z,54.10
2018-03-23T12:55:33.414Z,53.60
2018-03-23T12:58:56.738Z,51.80
2018-03-23T13:02:20.068Z,50.60
2018-03-23T13:05:43.423Z,49.20
2018-03-23T13:09:06.722Z,46.30
2018-03-23T13:12:30.059Z,45.40
2018-03-23T13:15:53.395Z,44.70
2018-03-23T13:19:16.757Z,48.20
2018-03-23T13:22:40.111Z,49.60
2018-03-23T13:26:03.370Z,49.30
2018-03-23T13:29:26.647Z,44.60
2018-03-23T13:32:50.696Z,45.70
2018-03-23T13:36:13.981Z,45.60
2018-03-23T13:39:37.323Z,45.60
2018-03-23T13:43:00.620Z,46.00
2018-03-23T13:46:23.946Z,46.50
2018-03-23T13:49:47.395Z,47.20
2018-03-23T13:53:10.717Z,46.70
2018-03-23T13:56:34.772Z,43.10
2018-03-23T13:59:58.924Z,42.90
2018-03-23T14:03:22.279Z,40.70
2018-03-23T14:06:45.556Z,39.50
2018-03-23T14:10:08.863Z,40.00
2018-03-23T14:13:32.136Z,40.40
2018-03-23T14:16:55.511Z,38.80
2018-03-23T14:20:18.871Z,37.40
2018-03-23T14:23:42.911Z,42.10
2018-03-23T14:27:06.192Z,42.10
2018-03-23T14:30:29.497Z,43.00
2018-03-23T14:33:52.789Z,42.80
2018-03-23T14:37:16.076Z,42.70
2018-03-23T14:40:39.350Z,43.10
2018-03-23T14:44:02.621Z,41.80
2018-03-23T14:47:26.854Z,41.90
2018-03-23T14:50:50.177Z,42.80
2018-03-23T14:54:13.458Z,42.30
2018-03-23T14:57:36.734Z,40.10
2018-03-23T15:01:00.020Z,40.90
2018-03-23T15:04:23.319Z,40.90
2018-03-23T15:07:47.350Z,40.40
2018-03-23T15:11:10.634Z,40.40
2018-03-23T15:14:33.931Z,40.00
2018-03-23T15:17:57.203Z,38.60
2018-03-23T15:21:20.476Z,37.10
2018-03-23T15:24:44.523Z,40.50
2018-03-23T15:28:07.786Z,41.10
2018-03-23T15:31:31.073Z,38.90
2018-03-23T15:34:54.416Z,37.30
2018-03-23T15:38:18.449Z,39.30
2018-03-23T15:41:41.843Z,39.20
2018-03-23T15:45:05.127Z,39.30
2018-03-23T15:48:29.256Z,39.20
2018-03-23T15:51:52.619Z,39.20
2018-03-23T15:55:15.921Z,38.10
2018-03-23T15:58:39.187Z,38.60
2018-03-23T16:02:02.484Z,40.20
2018-03-23T16:05:25.893Z,40.20
2018-03-23T16:08:49.183Z,40.40
2018-03-23T16:12:12.519Z,39.80
2018-03-23T16:15:35.899Z,38.50
2018-03-23T16:18:59.192Z,38.00
2018-03-23T16:22:22.451Z,37.60
2018-03-23T16:25:45.748Z,37.80
2018-03-23T16:29:09.005Z,37.90
2018-03-23T16:32:32.311Z,37.90
2018-03-23T16:35:55.705Z,36.70
2018-03-23T16:39:20.006Z,35.90
2018-03-23T16:42:45.278Z,35.80
2018-03-23T16:46:08.712Z,36.70
2018-03-23T16:49:32.276Z,37.10
2018-03-23T16:52:55.818Z,39.00
2018-03-23T16:56:19.330Z,40.40
2018-03-23T16:59:43.457Z,42.90
2018-03-23T17:03:07.156Z,42.90
2018-03-23T17:06:30.630Z,45.70
2018-03-23T17:09:54.861Z,47.20
2018-03-23T17:13:19.556Z,47.90
2018-03-23T17:16:43.338Z,47.80
2018-03-23T17:20:08.154Z,49.50
2018-03-23T17:23:32.097Z,49.50
2018-03-23T17:26:55.681Z,49.70
2018-03-23T17:30:19.177Z,49.80
2018-03-23T17:33:42.598Z,49.40
2018-03-23T17:37:08.949Z,48.40
2018-03-23T17:40:33.233Z,48.80
2018-03-23T17:43:58.784Z,49.40
2018-03-23T17:47:22.438Z,49.40
2018-03-23T17:50:45.930Z,49.20
2018-03-23T17:54:09.472Z,50.00
2018-03-23T17:57:33.110Z,50.10
2018-03-23T18:00:56.533Z,51.20
2018-03-23T18:04:19.984Z,51.90
2018-03-23T18:07:43.306Z,53.00
2018-03-23T18:11:06.639Z,53.40
2018-03-23T18:14:30.708Z,54.60
2018-03-23T18:17:54.015Z,54.50
2018-03-23T18:21:18.095Z,56.90
2018-03-23T18:24:43.238Z,56.90
2018-03-23T18:28:06.871Z,57.50
2018-03-23T18:31:31.003Z,54.90
2018-03-23T18:34:55.157Z,56.50
2018-03-23T18:38:18.608Z,56.30
2018-03-23T18:41:41.929Z,55.30
2018-03-23T18:45:05.283Z,56.90
2018-03-23T18:48:28.651Z,57.40
2018-03-23T18:51:52.035Z,57.40
2018-03-23T18:55:15.460Z,56.70
2018-03-23T18:58:39.548Z,58.10
2018-03-23T19:02:02.866Z,58.00
2018-03-23T19:05:26.300Z,58.60
2018-03-23T19:08:49.803Z,58.80
2018-03-23T19:12:15.105Z,60.40
2018-03-23T19:15:38.466Z,60.40
2018-03-23T19:19:01.772Z,60.30
2018-03-23T19:22:26.367Z,61.00
2018-03-23T19:25:49.685Z,61.70
2018-03-23T19:29:13.803Z,62.80
2018-03-23T19:32:37.391Z,62.70
2018-03-23T19:36:01.507Z,63.60
2018-03-23T19:39:24.991Z,63.50
2018-03-23T19:42:48.301Z,63.80
2018-03-23T19:46:11.616Z,64.00
2018-03-23T19:49:35.803Z,70.30
2018-03-23T19:52:59.235Z,70.30
2018-03-23T19:56:22.607Z,65.70
2018-03-23T19:59:45.953Z,65.50
2018-03-23T20:03:09.544Z,65.70
2018-03-23T20:06:33.945Z,67.90
2018-03-23T20:09:58.608Z,67.60
2018-03-23T20:13:22.827Z,67.60
2018-03-23T20:16:46.376Z,66.90
2018-03-23T20:20:15.159Z,66.70
2018-03-23T20:23:38.461Z,67.20
2018-03-23T20:30:59.639Z,68.10
2018-03-23T20:34:24.136Z,69.00
2018-03-23T20:37:48.285Z,69.90
2018-03-23T20:41:12.645Z,70.00
2018-03-23T20:44:39.506Z,70.00
2018-03-23T20:48:03.655Z,70.40
2018-03-23T20:51:31.336Z,70.30
2018-03-23T20:54:54.634Z,70.90
2018-03-23T20:58:17.916Z,71.90
2018-03-23T21:01:41.383Z,71.20
2018-03-23T21:05:05.524Z,72.20
2018-03-23T21:08:29.593Z,72.30
2018-03-23T21:11:53.244Z,72.30
2018-03-23T21:15:16.771Z,72.50
2018-03-23T21:18:40.313Z,72.70
2018-03-23T21:22:03.595Z,72.50
2018-03-23T21:25:26.934Z,72.70
2018-03-23T21:28:50.375Z,72.90
2018-03-23T21:32:13.731Z,73.50
2018-03-23T21:35:37.231Z,74.10
2018-03-23T21:39:00.575Z,73.90
2018-03-23T21:42:23.887Z,74.50
2018-03-23T21:45:47.147Z,74.50
2018-03-23T21:49:10.447Z,75.10
2018-03-23T21:52:33.808Z,75.20
2018-03-23T21:55:57.157Z,75.20
2018-03-23T21:59:20.539Z,74.80
2018-03-23T22:02:44.669Z,75.40
2018-03-23T22:06:08.029Z,75.20
2018-03-23T22:09:31.481Z,75.40
2018-03-23T22:12:55.607Z,75.70
2018-03-23T22:16:18.946Z,75.60
2018-03-23T22:19:42.219Z,75.90
2018-03-23T22:23:06.312Z,76.10
2018-03-23T22:26:30.358Z,76.20
2018-03-23T22:29:53.625Z,76.10
2018-03-23T22:33:17.524Z,76.40
2018-03-23T22:36:41.859Z,76.40
2018-03-23T22:40:06.485Z,76.40
2018-03-23T22:43:29.930Z,76.50
2018-03-23T22:46:53.321Z,76.80
2018-03-23T22:50:16.727Z,77.50
2018-03-23T22:53:40.991Z,77.70
2018-03-23T22:57:05.069Z,78.20
2018-03-23T23:00:28.552Z,78.10
2018-03-23T23:03:52.649Z,78.00
2018-03-23T23:07:16.237Z,77.80
2018-03-23T23:10:39.492Z,78.00
2018-03-23T23:14:03.601Z,78.80
2018-03-23T23:17:26.886Z,78.60
2018-03-23T23:20:50.152Z,78.60
2018-03-23T23:24:13.644Z,78.80
2018-03-23T23:27:37.775Z,78.80
2018-03-23T23:31:01.082Z,78.70
2018-03-23T23:34:25.334Z,78.80
2018-03-23T23:37:48.687Z,78.60
2018-03-23T23:41:11.998Z,79.00
2018-03-23T23:44:35.319Z,79.40
2018-03-23T23:47:58.626Z,79.80
2018-03-23T23:51:21.879Z,79.70
2018-03-23T23:54:45.939Z,79.10
2018-03-23T23:58:09.270Z,78.90
